Time;durP1;ratioP1;P1;durP2;ratioP2;P2;SDS_P1;SDS_P2;PMS_P1;PMS_P2;Temp;Humidity;BMP_temperature;BMP_pressure;BME280_temperature;BME280_humidity;BME280_pressure;Samples;Min_cycle;Max_cycle;Signal;HPM_P1;HPM_P2
2024/01/16 00:01:22;;;;;;;;;;;;;;;2.86;54.67;98406.53;4453482;32;34475;-87
2024/01/16 00:03:51;;;;;;;;;;;;;;;2.77;55.09;98406.56;4448038;32;33369;-87
2024/01/16 00:06:20;;;;;;;;;;;;;;;2.86;55.12;98415.94;4448079;32;33723;-88
2024/01/16 00:08:53;;;;;;;;;;;;;;;2.90;55.24;98418.50;4449196;32;34069;-87
2024/01/16 00:11:25;;;;;;;;;;;;;;;2.71;55.92;98421.94;4453096;32;34650;-87
2024/01/16 00:13:55;;;;;;;;;;;;;;;2.75;56.13;98424.50;4448420;32;32735;-87
2024/01/16 00:16:26;;;;;;;;;;;;;;;2.75;56.29;98433.88;4448622;32;34658;-88
2024/01/16 00:18:55;;;;;;;;;;;;;;;2.74;56.38;98433.03;4447997;32;33667;-87
2024/01/16 00:21:30;;;;;;;;;;;;;;;2.54;57.25;98440.75;4448037;32;34062;-87
2024/01/16 00:24:00;;;;;;;;;;;;;;;2.81;56.58;98456.06;4452650;32;33571;-87
2024/01/16 00:26:28;;;;;;;;;;;;;;;2.75;56.58;98451.78;4450889;32;34716;-88
2024/01/16 00:28:58;;;;;;;;;;;;;;;2.89;56.47;98447.50;4453055;32;34885;-87
2024/01/16 00:31:27;;;;;;;;;;;;;;;2.61;57.21;98456.97;4448255;32;34625;-87
2024/01/16 00:33:58;;;;;;;;;;;;;;;2.73;57.07;98451.81;4452942;32;33771;-87
2024/01/16 00:36:27;;;;;;;;;;;;;;;2.77;57.01;98461.19;4450198;32;33931;-88
2024/01/16 00:39:00;;;;;;;;;;;;;;;2.82;56.81;98452.66;4451040;32;34398;-87
2024/01/16 00:41:35;;;;;;;;;;;;;;;2.62;57.19;98462.94;4448184;32;34710;-87
2024/01/16 00:44:04;;;;;;;;;;;;;;;2.94;56.51;98470.53;4450688;32;32520;-87
2024/01/16 00:46:39;;;;;;;;;;;;;;;2.86;56.66;98485.94;4465819;32;34141;-87
2024/01/16 00:49:08;;;;;;;;;;;;;;;2.87;56.78;98474.81;4460346;32;33772;-87
2024/01/16 00:51:38;;;;;;;;;;;;;;;3.04;56.08;98491.87;4450915;32;34072;-88
2024/01/16 00:54:08;;;;;;;;;;;;;;;2.75;56.97;98492.78;4448222;32;34022;-87
2024/01/16 00:56:37;;;;;;;;;;;;;;;3.10;55.94;98499.56;4448445;32;34033;-88
2024/01/16 00:59:06;;;;;;;;;;;;;;;3.08;55.74;98501.28;4452841;32;33442;-87
2024/01/16 01:01:36;;;;;;;;;;;;;;;3.16;55.31;98505.50;4448224;32;34551;-87
2024/01/16 01:04:07;;;;;;;;;;;;;;;3.08;55.65;98514.09;4447809;32;33432;-87
2024/01/16 01:06:38;;;;;;;;;;;;;;;2.80;56.27;98511.53;4448569;32;34054;-88
2024/01/16 01:09:11;;;;;;;;;;;;;;;2.93;56.03;98515.81;4459732;32;34643;-87
2024/01/16 01:11:43;;;;;;;;;;;;;;;3.06;55.72;98515.78;4447973;32;34119;-88
2024/01/16 01:14:12;;;;;;;;;;;;;;;3.15;55.23;98521.75;4448051;32;33185;-87
2024/01/16 01:16:47;;;;;;;;;;;;;;;2.83;55.81;98518.38;4449025;32;34173;-87
2024/01/16 01:19:15;;;;;;;;;;;;;;;2.71;56.11;98521.81;4449726;32;34920;-87
2024/01/16 01:21:44;;;;;;;;;;;;;;;2.80;55.92;98524.34;4452576;32;34064;-88
2024/01/16 01:24:14;;;;;;;;;;;;;;;2.78;55.77;98524.38;4461676;32;33369;-88
2024/01/16 01:26:43;;;;;;;;;;;;;;;2.84;55.79;98527.78;4463941;32;34800;-87
2024/01/16 01:29:15;;;;;;;;;;;;;;;2.77;55.58;98529.47;4465890;32;33751;-87
2024/01/16 01:31:47;;;;;;;;;;;;;;;2.84;55.29;98533.75;4460142;32;33654;-87
2024/01/16 01:34:16;;;;;;;;;;;;;;;2.90;55.39;98536.31;4447831;32;32901;-87
2024/01/16 01:36:45;;;;;;;;;;;;;;;2.86;55.17;98534.59;4433074;32;32958;-87
2024/01/16 01:39:18;;;;;;;;;;;;;;;2.66;56.05;98538.88;4449053;32;35002;-87
2024/01/16 01:41:53;;;;;;;;;;;;;;;2.79;55.47;98535.47;4447875;32;33984;-88
2024/01/16 01:44:21;;;;;;;;;;;;;;;2.81;55.25;98538.88;4452478;32;33788;-87
2024/01/16 01:46:50;;;;;;;;;;;;;;;2.58;55.87;98546.56;4449691;32;34515;-87
2024/01/16 01:49:19;;;;;;;;;;;;;;;2.56;56.26;98541.44;4447357;32;33746;-87
2024/01/16 01:51:48;;;;;;;;;;;;;;;2.53;56.47;98541.44;4458002;32;34193;-87
2024/01/16 01:54:24;;;;;;;;;;;;;;;2.57;56.32;98537.19;4468244;32;33397;-87
2024/01/16 01:56:55;;;;;;;;;;;;;;;2.52;56.47;98555.09;4459386;32;33295;-87
2024/01/16 01:59:24;;;;;;;;;;;;;;;2.33;56.89;98548.25;4452217;32;34997;-88
2024/01/16 02:02:00;;;;;;;;;;;;;;;2.25;57.45;98552.50;4447228;32;34006;-87
2024/01/16 02:04:29;;;;;;;;;;;;;;;2.42;56.89;98563.62;4447570;32;33768;-87
2024/01/16 02:07:01;;;;;;;;;;;;;;;2.28;57.20;98566.16;4452382;32;33654;-88
2024/01/16 02:09:30;;;;;;;;;;;;;;;2.45;56.86;98566.19;4450198;32;33832;-87
2024/01/16 02:11:59;;;;;;;;;;;;;;;2.48;56.61;98566.16;4448956;32;34107;-87
2024/01/16 02:14:27;;;;;;;;;;;;;;;2.67;56.15;98571.31;4447424;32;33377;-87
2024/01/16 02:16:56;;;;;;;;;;;;;;;2.68;55.98;98571.34;4448338;32;33556;-88
2024/01/16 02:19:27;;;;;;;;;;;;;;;2.71;55.76;98579.00;4452078;32;35124;-88
2024/01/16 02:21:58;;;;;;;;;;;;;;;2.58;55.88;98582.41;4446994;32;34092;-88
2024/01/16 02:24:32;;;;;;;;;;;;;;;2.73;55.55;98584.09;4447833;32;33770;-88
2024/01/16 02:27:01;;;;;;;;;;;;;;;2.78;55.57;98588.41;4447407;32;33935;-87
2024/01/16 02:29:32;;;;;;;;;;;;;;;2.65;55.72;98596.91;4452229;32;34113;-87
2024/01/16 02:32:07;;;;;;;;;;;;;;;2.91;55.20;98599.50;4447194;32;33830;-87
2024/01/16 02:34:36;;;;;;;;;;;;;;;3.03;54.68;98601.19;4447184;32;32943;-88
2024/01/16 02:37:07;;;;;;;;;;;;;;;2.89;54.97;98610.59;4450465;32;34119;-88
2024/01/16 02:39:36;;;;;;;;;;;;;;;3.06;54.51;98613.16;4449061;32;34664;-87
2024/01/16 02:42:06;;;;;;;;;;;;;;;3.06;54.65;98616.56;4452248;32;34067;-87
2024/01/16 02:44:34;;;;;;;;;;;;;;;3.14;54.49;98617.44;4447131;32;32851;-87
2024/01/16 02:47:03;;;;;;;;;;;;;;;3.09;54.75;98616.56;4455213;32;33715;-88
2024/01/16 02:49:42;;;;;;;;;;;;;;;3.24;54.25;98618.28;4459739;32;34088;-87
2024/01/16 02:52:10;;;;;;;;;;;;;;;3.30;54.02;98620.81;4451976;32;33859;-88
2024/01/16 02:54:40;;;;;;;;;;;;;;;3.14;54.21;98617.44;4459192;32;33402;-88
2024/01/16 02:57:17;;;;;;;;;;;;;;;3.29;54.00;98614.00;4450343;32;33941;-88
2024/01/16 02:59:45;;;;;;;;;;;;;;;3.30;53.46;98613.13;4460259;32;34321;-87
2024/01/16 03:02:15;;;;;;;;;;;;;;;2.80;54.62;98618.25;4451586;32;34346;-88
2024/01/16 03:04:43;;;;;;;;;;;;;;;2.82;54.74;98622.53;4460241;32;33149;-88
2024/01/16 03:07:12;;;;;;;;;;;;;;;2.78;54.50;98625.97;4453187;32;33540;-87
2024/01/16 03:09:45;;;;;;;;;;;;;;;2.88;53.96;98622.56;4446844;32;34797;-88
2024/01/16 03:12:17;;;;;;;;;;;;;;;2.70;54.57;98625.09;4447364;32;33372;-88
2024/01/16 03:14:45;;;;;;;;;;;;;;;2.65;54.63;98619.97;4455610;32;33587;-88
2024/01/16 03:17:17;;;;;;;;;;;;;;;2.60;54.64;98615.69;4457997;32;34755;-88
2024/01/16 03:19:45;;;;;;;;;;;;;;;2.59;54.64;98619.13;4450776;32;34847;-88
2024/01/16 03:22:15;;;;;;;;;;;;;;;2.67;54.16;98625.94;4446145;32;33795;-88
2024/01/16 03:24:48;;;;;;;;;;;;;;;2.51;54.33;98639.56;4453603;32;32428;-88
2024/01/16 03:27:17;;;;;;;;;;;;;;;2.52;54.42;98641.28;4455730;32;33691;-88
2024/01/16 03:29:48;;;;;;;;;;;;;;;2.68;53.61;98639.59;4459179;32;33585;-87
2024/01/16 03:32:17;;;;;;;;;;;;;;;2.83;53.29;98649.00;4457144;32;35345;-88
2024/01/16 03:34:50;;;;;;;;;;;;;;;2.89;52.86;98647.31;4455857;32;33582;-88
2024/01/16 03:37:21;;;;;;;;;;;;;;;2.86;53.11;98656.72;4458363;32;32451;-88
2024/01/16 03:39:52;;;;;;;;;;;;;;;2.79;52.89;98655.84;4459060;32;34681;-88
2024/01/16 03:42:21;;;;;;;;;;;;;;;2.76;53.06;98668.66;4454929;32;32672;-88
2024/01/16 03:44:52;;;;;;;;;;;;;;;2.62;53.44;98667.75;4448247;32;33608;-88
2024/01/16 03:47:28;;;;;;;;;;;;;;;2.53;53.48;98669.44;4457529;32;34621;-88
2024/01/16 03:49:56;;;;;;;;;;;;;;;2.76;53.18;98676.34;4453053;32;34331;-88
2024/01/16 03:52:27;;;;;;;;;;;;;;;2.90;52.70;98668.66;4457615;32;34235;-88
2024/01/16 03:54:57;;;;;;;;;;;;;;;2.87;52.69;98679.75;4448443;32;32710;-88
2024/01/16 03:57:26;;;;;;;;;;;;;;;2.82;52.91;98672.91;4453791;32;33885;-88
2024/01/16 03:59:57;;;;;;;;;;;;;;;2.90;52.48;98676.31;4464034;32;33571;-88
2024/01/16 04:02:26;;;;;;;;;;;;;;;2.80;52.58;98683.16;4464899;32;34341;-89
2024/01/16 04:04:57;;;;;;;;;;;;;;;2.65;52.89;98685.69;4458845;32;33532;-88
2024/01/16 04:07:26;;;;;;;;;;;;;;;2.59;53.12;98683.97;4452169;32;33727;-88
2024/01/16 04:09:59;;;;;;;;;;;;;;;2.69;52.64;98684.84;4450473;32;33136;-88
2024/01/16 04:12:29;;;;;;;;;;;;;;;2.42;53.41;98696.72;4453144;32;34769;-88
2024/01/16 04:15:01;;;;;;;;;;;;;;;2.77;52.70;98688.28;4447753;32;33397;-88
2024/01/16 04:17:36;;;;;;;;;;;;;;;2.83;52.44;98700.22;4458052;32;34040;-88
2024/01/16 04:20:06;;;;;;;;;;;;;;;2.79;52.58;98696.81;4451577;32;33808;-88
2024/01/16 04:22:35;;;;;;;;;;;;;;;2.85;52.42;98707.09;4447924;32;33651;-88
2024/01/16 04:25:06;;;;;;;;;;;;;;;2.61;53.12;98717.25;4453064;32;33444;-88
2024/01/16 04:27:37;;;;;;;;;;;;;;;2.87;52.48;98719.87;4447748;32;33136;-88
2024/01/16 04:30:07;;;;;;;;;;;;;;;2.76;52.56;98718.16;4451964;32;34283;-88
2024/01/16 04:32:36;;;;;;;;;;;;;;;2.48;53.31;98718.91;4456511;32;33974;-88
2024/01/16 04:35:05;;;;;;;;;;;;;;;2.38;53.65;98728.28;4452725;32;32623;-88
2024/01/16 04:37:36;;;;;;;;;;;;;;;2.46;53.37;98729.13;4447994;32;33384;-88
2024/01/16 04:40:09;;;;;;;;;;;;;;;2.73;52.46;98728.41;4456966;32;34151;-88
2024/01/16 04:42:38;;;;;;;;;;;;;;;2.61;52.59;98736.06;4463370;32;33740;-88
2024/01/16 04:45:09;;;;;;;;;;;;;;;2.42;53.35;98742.78;4463132;32;32643;-88
2024/01/16 04:47:41;;;;;;;;;;;;;;;2.52;53.02;98752.22;4466534;32;34432;-88
2024/01/16 04:50:12;;;;;;;;;;;;;;;2.66;52.42;98744.59;4461296;32;33796;-88
2024/01/16 04:52:45;;;;;;;;;;;;;;;2.63;52.64;98761.63;4453954;32;34472;-89
2024/01/16 04:55:15;;;;;;;;;;;;;;;2.43;53.09;98757.28;4447835;32;32727;-88
2024/01/16 04:57:47;;;;;;;;;;;;;;;2.68;52.21;98759.94;4453126;32;34443;-88
2024/01/16 05:00:16;;;;;;;;;;;;;;;2.55;52.39;98759.06;4468223;32;33649;-88
2024/01/16 05:02:44;;;;;;;;;;;;;;;2.38;53.07;98763.25;4463188;32;34268;-88
2024/01/16 05:05:15;;;;;;;;;;;;;;;2.56;52.57;98769.31;4450070;32;33460;-88
2024/01/16 05:07:45;;;;;;;;;;;;;;;2.74;51.71;98771.06;4466526;32;34042;-88
2024/01/16 05:10:19;;;;;;;;;;;;;;;2.50;52.14;98768.44;4465371;32;34627;-88
2024/01/16 05:12:48;;;;;;;;;;;;;;;2.25;52.11;98772.59;4447334;32;36272;-88
2024/01/16 05:15:18;;;;;;;;;;;;;;;2.30;52.32;98779.44;4447680;32;33404;-88
2024/01/16 05:17:50;;;;;;;;;;;;;;;2.13;52.62;98787.00;4449538;32;34765;-89
2024/01/16 05:20:19;;;;;;;;;;;;;;;1.99;52.87;98787.78;4439706;32;33687;-89
2024/01/16 05:22:48;;;;;;;;;;;;;;;2.02;52.87;98791.19;4437020;32;34203;-88
2024/01/16 05:25:22;;;;;;;;;;;;;;;2.08;52.81;98791.25;4432156;32;33843;-88
2024/01/16 05:27:54;;;;;;;;;;;;;;;1.97;52.87;98792.00;4432703;32;33886;-88
2024/01/16 05:30:23;;;;;;;;;;;;;;;1.96;52.92;98795.41;4432383;32;33969;-88
2024/01/16 05:33:00;;;;;;;;;;;;;;;2.04;52.89;98804.84;4437154;32;34464;-89
2024/01/16 05:35:32;;;;;;;;;;;;;;;2.17;52.38;98817.72;4444661;32;32912;-89
2024/01/16 05:38:07;;;;;;;;;;;;;;;1.98;52.69;98804.81;4448250;32;33872;-89
2024/01/16 05:40:38;;;;;;;;;;;;;;;2.11;52.50;98819.41;4449470;32;33501;-89
2024/01/16 05:43:11;;;;;;;;;;;;;;;2.01;52.78;98821.91;4447583;32;33843;-89
2024/01/16 05:45:43;;;;;;;;;;;;;;;1.97;52.67;98821.00;4452831;32;33763;-88
2024/01/16 05:48:12;;;;;;;;;;;;;;;1.97;52.83;98822.72;4443341;32;34398;-88
2024/01/16 05:50:43;;;;;;;;;;;;;;;2.17;52.39;98833.06;4444659;32;33621;-88
2024/01/16 05:53:11;;;;;;;;;;;;;;;1.98;52.41;98834.63;4445460;32;33901;-88
2024/01/16 05:55:44;;;;;;;;;;;;;;;2.01;52.45;98832.12;4439493;32;32685;-89
2024/01/16 05:58:13;;;;;;;;;;;;;;;2.03;52.36;98836.41;4436435;32;33962;-88
2024/01/16 06:00:45;;;;;;;;;;;;;;;2.07;52.17;98837.28;4440462;32;34462;-89
2024/01/16 06:03:14;;;;;;;;;;;;;;;2.32;51.52;98839.16;4437245;32;33614;-88
2024/01/16 06:05:44;;;;;;;;;;;;;;;2.07;52.21;98848.34;4431039;32;33678;-89
2024/01/16 06:08:14;;;;;;;;;;;;;;;2.21;51.69;98848.47;4440905;32;34487;-89
2024/01/16 06:10:51;;;;;;;;;;;;;;;2.07;51.77;98852.63;4437221;32;34907;-88
2024/01/16 06:13:22;;;;;;;;;;;;;;;2.04;51.93;98848.34;4437032;32;34322;-88
2024/01/16 06:15:53;;;;;;;;;;;;;;;1.86;52.54;98858.41;4437978;32;33081;-88
2024/01/16 06:18:22;;;;;;;;;;;;;;;2.19;51.63;98856.97;4440569;32;33708;-89
2024/01/16 06:20:52;;;;;;;;;;;;;;;2.06;51.79;98858.59;4440430;32;34363;-89
2024/01/16 06:23:20;;;;;;;;;;;;;;;1.92;51.96;98859.34;4443412;32;34777;-88
2024/01/16 06:25:53;;;;;;;;;;;;;;;1.96;52.15;98870.47;4441718;32;32899;-90
2024/01/16 06:28:22;;;;;;;;;;;;;;;1.97;52.22;98871.31;4443570;32;33243;-89
2024/01/16 06:30:58;;;;;;;;;;;;;;;1.85;51.96;98866.94;4442191;32;33767;-89
2024/01/16 06:33:27;;;;;;;;;;;;;;;1.87;51.86;98870.38;4443962;32;34768;-89
2024/01/16 06:36:06;;;;;;;;;;;;;;;1.86;52.08;98874.66;4445628;32;32199;-88
2024/01/16 06:38:35;;;;;;;;;;;;;;;1.59;52.61;98885.44;4439814;32;33416;-89
2024/01/16 06:41:07;;;;;;;;;;;;;;;1.53;52.88;98892.22;4432072;32;33276;-89
2024/01/16 06:43:37;;;;;;;;;;;;;;;1.56;52.80;98894.81;4438310;32;34590;-89
2024/01/16 06:46:06;;;;;;;;;;;;;;;1.30;53.52;98897.06;4437047;32;33746;-89
2024/01/16 06:48:40;;;;;;;;;;;;;;;1.38;53.58;98906.56;4440912;32;34236;-89
2024/01/16 06:51:10;;;;;;;;;;;;;;;1.49;53.24;98916.88;4431899;32;35422;-89
2024/01/16 06:53:40;;;;;;;;;;;;;;;1.33;53.71;98923.53;4431091;32;34158;-88
2024/01/16 06:56:13;;;;;;;;;;;;;;;1.33;53.77;98926.09;4435770;32;33152;-90
2024/01/16 06:58:45;;;;;;;;;;;;;;;1.43;53.67;98934.72;4431517;32;34208;-89
2024/01/16 07:01:14;;;;;;;;;;;;;;;1.49;53.41;98937.31;4431335;32;33816;-89
2024/01/16 07:03:43;;;;;;;;;;;;;;;1.46;53.82;98939.84;4440313;32;34267;-90
2024/01/16 07:06:12;;;;;;;;;;;;;;;1.53;53.65;98944.19;4449622;32;33166;-89
2024/01/16 07:08:43;;;;;;;;;;;;;;;1.59;53.33;98943.41;4445443;32;33202;-90
2024/01/16 07:11:13;;;;;;;;;;;;;;;1.74;53.47;98958.03;4449814;32;33705;-89
2024/01/16 07:13:44;;;;;;;;;;;;;;;1.89;52.98;98964.19;4447964;32;34149;-89
2024/01/16 07:16:14;;;;;;;;;;;;;;;1.85;52.92;98961.56;4447578;32;32794;-89
2024/01/16 07:18:53;;;;;;;;;;;;;;;1.69;53.58;98966.53;4452483;32;33624;-90
2024/01/16 07:21:23;;;;;;;;;;;;;;;1.74;53.31;98969.16;4449898;32;33718;-89
2024/01/16 07:23:59;;;;;;;;;;;;;;;1.89;53.12;98984.63;4446422;32;33702;-90
2024/01/16 07:26:31;;;;;;;;;;;;;;;2.12;52.55;98987.41;4443531;32;33012;-89
2024/01/16 07:29:01;;;;;;;;;;;;;;;2.42;51.93;98993.66;4434968;32;33890;-88
2024/01/16 07:31:32;;;;;;;;;;;;;;;2.30;51.71;98991.84;4437851;32;34850;-90
2024/01/16 07:34:02;;;;;;;;;;;;;;;2.24;52.01;98991.78;4437199;32;33723;-89
2024/01/16 07:36:33;;;;;;;;;;;;;;;2.22;51.95;98988.34;4433280;32;33599;-89
2024/01/16 07:39:02;;;;;;;;;;;;;;;2.34;51.66;98991.03;4434046;32;34759;-89
2024/01/16 07:41:37;;;;;;;;;;;;;;;2.37;51.39;98997.88;4447681;32;34471;-89
2024/01/16 07:44:08;;;;;;;;;;;;;;;2.39;51.38;99010.69;4452849;32;35052;-88
2024/01/16 07:46:38;;;;;;;;;;;;;;;2.63;50.90;99002.34;4449535;32;33218;-90
2024/01/16 07:49:08;;;;;;;;;;;;;;;2.68;50.60;99008.34;4453948;32;33508;-89
2024/01/16 07:51:40;;;;;;;;;;;;;;;2.95;49.84;99007.72;4454957;32;34043;-89
2024/01/16 07:54:13;;;;;;;;;;;;;;;3.15;48.88;99008.69;4452051;32;33740;-88
2024/01/16 07:56:47;;;;;;;;;;;;;;;3.24;48.66;99017.25;4447666;32;34253;-88
2024/01/16 07:59:24;;;;;;;;;;;;;;;3.27;48.37;99012.16;4449826;32;33509;-88
2024/01/16 08:01:53;;;;;;;;;;;;;;;3.45;47.25;99022.50;4448188;32;34645;-89
2024/01/16 08:04:23;;;;;;;;;;;;;;;3.09;47.63;99024.00;4447717;32;34846;-89
2024/01/16 08:06:53;;;;;;;;;;;;;;;3.51;47.19;99034.50;4462748;32;33056;-88
2024/01/16 08:09:21;;;;;;;;;;;;;;;3.37;46.53;99027.59;4466218;32;34085;-89
2024/01/16 08:11:52;;;;;;;;;;;;;;;3.37;46.42;99035.28;4462122;32;34149;-88
2024/01/16 08:14:23;;;;;;;;;;;;;;;3.28;46.59;99042.06;4462088;32;33905;-88
2024/01/16 08:16:54;;;;;;;;;;;;;;;3.27;45.80;99035.22;4468117;32;34138;-88
2024/01/16 08:19:30;;;;;;;;;;;;;;;3.28;46.19;99031.81;4464106;32;33488;-89
2024/01/16 08:21:59;;;;;;;;;;;;;;;3.40;45.68;99042.97;4459926;32;34456;-88
2024/01/16 08:24:29;;;;;;;;;;;;;;;3.24;45.71;99042.88;4463746;32;33928;-88
2024/01/16 08:26:58;;;;;;;;;;;;;;;3.19;45.75;99038.63;4463864;32;32773;-88
2024/01/16 08:29:33;;;;;;;;;;;;;;;3.35;45.54;99049.78;4468355;32;34086;-89
2024/01/16 08:32:05;;;;;;;;;;;;;;;3.64;44.99;99054.22;4463990;32;34660;-88
2024/01/16 08:34:43;;;;;;;;;;;;;;;3.66;44.66;99059.34;4464155;32;34943;-88
2024/01/16 08:37:12;;;;;;;;;;;;;;;3.57;44.74;99055.87;4448295;32;32685;-88
2024/01/16 08:39:48;;;;;;;;;;;;;;;3.51;44.79;99063.56;4447825;32;34190;-88
2024/01/16 08:42:18;;;;;;;;;;;;;;;3.61;44.67;99062.75;4452864;32;34533;-88
2024/01/16 08:44:46;;;;;;;;;;;;;;;3.85;44.35;99059.44;4447906;32;34485;-87
2024/01/16 08:47:20;;;;;;;;;;;;;;;3.95;43.65;99062.03;4448377;32;33502;-88
2024/01/16 08:49:49;;;;;;;;;;;;;;;3.85;43.51;99063.72;4449294;32;33206;-87
2024/01/16 08:52:19;;;;;;;;;;;;;;;3.52;44.29;99059.28;4453046;32;33717;-88
2024/01/16 08:54:48;;;;;;;;;;;;;;;3.73;43.62;99061.94;4448812;32;34154;-87
2024/01/16 08:57:18;;;;;;;;;;;;;;;3.86;43.46;99062.84;4460281;32;32977;-88
2024/01/16 08:59:50;;;;;;;;;;;;;;;3.89;43.34;99062.00;4468061;32;33812;-87
2024/01/16 09:02:21;;;;;;;;;;;;;;;3.87;42.87;99072.28;4449693;32;34358;-87
2024/01/16 09:04:50;;;;;;;;;;;;;;;3.70;43.15;99073.94;4452676;32;33690;-87
2024/01/16 09:07:25;;;;;;;;;;;;;;;3.52;43.37;99075.53;4448139;32;32506;-88
2024/01/16 09:09:54;;;;;;;;;;;;;;;3.67;43.23;99079.00;4450217;32;33578;-87
2024/01/16 09:12:26;;;;;;;;;;;;;;;4.07;42.66;99080.03;4447740;32;33835;-87
2024/01/16 09:14:55;;;;;;;;;;;;;;;4.21;41.85;99073.22;4450735;32;34970;-87
2024/01/16 09:17:26;;;;;;;;;;;;;;;4.09;41.73;99073.22;4452550;32;34044;-87
2024/01/16 09:19:56;;;;;;;;;;;;;;;4.08;41.29;99076.59;4448614;32;34257;-87
2024/01/16 09:22:30;;;;;;;;;;;;;;;4.10;41.67;99079.19;4447793;32;35729;-88
2024/01/16 09:24:59;;;;;;;;;;;;;;;4.37;41.29;99084.38;4454994;32;34822;-86
2024/01/16 09:27:32;;;;;;;;;;;;;;;4.32;41.38;99075.81;4466091;32;32834;-87
2024/01/16 09:30:07;;;;;;;;;;;;;;;4.42;41.41;99085.28;4463417;32;34083;-86
2024/01/16 09:32:43;;;;;;;;;;;;;;;4.51;41.50;99078.44;4463346;32;35036;-86
2024/01/16 09:35:13;;;;;;;;;;;;;;;4.43;41.75;99088.69;4462907;32;33904;-87
2024/01/16 09:37:41;;;;;;;;;;;;;;;4.31;41.91;99076.69;4464516;32;33374;-87
2024/01/16 09:40:13;;;;;;;;;;;;;;;4.32;41.95;99082.66;4466925;32;34166;-87
2024/01/16 09:42:42;;;;;;;;;;;;;;;4.16;42.34;99079.22;4449411;32;34037;-87
2024/01/16 09:45:10;;;;;;;;;;;;;;;4.19;42.14;99076.66;4451660;32;34122;-87
2024/01/16 09:47:41;;;;;;;;;;;;;;;4.55;41.83;99081.00;4449820;32;33367;-87
2024/01/16 09:50:21;;;;;;;;;;;;;;;4.50;41.89;99082.72;4450768;32;33263;-86
2024/01/16 09:52:49;;;;;;;;;;;;;;;4.51;41.93;99092.13;4451370;32;33433;-87
2024/01/16 09:55:21;;;;;;;;;;;;;;;4.41;42.08;99080.13;4446176;32;34052;-87
2024/01/16 09:57:50;;;;;;;;;;;;;;;4.31;42.09;99089.53;4447349;32;32690;-84
2024/01/16 10:00:21;;;;;;;;;;;;;;;4.48;42.09;99087.84;4449012;32;34491;-84
2024/01/16 10:02:50;;;;;;;;;;;;;;;4.61;42.09;99083.56;4463426;32;33366;-84
2024/01/16 10:05:20;;;;;;;;;;;;;;;4.58;42.11;99078.44;4460984;32;34042;-85
2024/01/16 10:07:49;;;;;;;;;;;;;;;4.65;42.31;99082.72;4445907;32;34199;-84
2024/01/16 10:10:28;;;;;;;;;;;;;;;4.53;42.41;99077.56;4445446;32;33885;-84
2024/01/16 10:13:14;;;;;;;;;;;;;;;4.53;42.32;99080.13;4446495;32;34294;-84
2024/01/16 10:15:55;;;;;;;;;;;;;;;4.57;42.11;99094.72;4451430;32;33839;-85
2024/01/16 10:18:29;;;;;;;;;;;;;;;4.41;41.77;99075.84;4447570;32;34232;-84
2024/01/16 10:21:00;;;;;;;;;;;;;;;4.68;41.43;99087.84;4435326;32;34720;-84
2024/01/16 10:23:29;;;;;;;;;;;;;;;4.35;40.48;99086.13;4447032;32;33329;-84
2024/01/16 10:26:11;;;;;;;;;;;;;;;4.31;40.78;99089.53;4447513;32;34286;-84
2024/01/16 10:28:40;;;;;;;;;;;;;;;4.18;40.35;99080.06;4452067;32;33246;-84
2024/01/16 10:31:15;;;;;;;;;;;;;;;4.16;40.30;99090.34;4453014;32;34754;-84
2024/01/16 10:33:44;;;;;;;;;;;;;;;4.20;40.11;99089.47;4454913;32;33555;-84
2024/01/16 10:36:20;;;;;;;;;;;;;;;4.10;40.09;99082.59;4453348;32;34263;-84
2024/01/16 10:38:57;;;;;;;;;;;;;;;4.27;40.17;99095.50;4451034;32;32755;-84
2024/01/16 10:41:26;;;;;;;;;;;;;;;4.22;39.98;99090.34;4456878;32;33613;-83
2024/01/16 10:44:01;;;;;;;;;;;;;;;4.49;39.55;99084.44;4457900;32;34172;-84
2024/01/16 10:46:48;;;;;;;;;;;;;;;4.33;39.18;99098.09;4451158;32;33679;-83
2024/01/16 10:49:35;;;;;;;;;;;;;;;4.39;39.25;99094.66;4457407;32;33681;-84
2024/01/16 10:52:16;;;;;;;;;;;;;;;4.27;39.75;99096.34;4456228;32;34859;-84
2024/01/16 10:54:50;;;;;;;;;;;;;;;4.26;40.06;99089.50;4455443;32;32977;-83
2024/01/16 10:57:19;;;;;;;;;;;;;;;4.13;39.90;99102.28;4460369;32;34856;-83
2024/01/16 10:59:50;;;;;;;;;;;;;;;4.14;40.12;99101.47;4461721;32;31865;-84
2024/01/16 11:02:21;;;;;;;;;;;;;;;4.23;39.92;99098.94;4460748;32;34538;-84
2024/01/16 11:05:11;;;;;;;;;;;;;;;4.28;40.00;99094.66;4461696;32;34239;-84
2024/01/16 11:07:42;;;;;;;;;;;;;;;4.22;40.46;99097.19;4462279;32;33546;-83
2024/01/16 11:10:12;;;;;;;;;;;;;;;4.65;39.61;99094.72;4466524;32;33010;-84
2024/01/16 11:12:44;;;;;;;;;;;;;;;4.49;39.98;99106.66;4458297;32;34418;-84
2024/01/16 11:15:13;;;;;;;;;;;;;;;4.57;39.83;99105.00;4446664;32;34290;-83
2024/01/16 11:17:46;;;;;;;;;;;;;;;4.28;39.96;99090.38;4461108;32;34716;-83
2024/01/16 11:20:16;;;;;;;;;;;;;;;4.34;40.18;99091.22;4452441;32;33105;-84
2024/01/16 11:23:07;;;;;;;;;;;;;;;4.34;39.70;99079.25;4449545;32;33988;-83
2024/01/16 11:25:35;;;;;;;;;;;;;;;4.45;39.85;99087.00;4444442;32;36279;-83
2024/01/16 11:28:11;;;;;;;;;;;;;;;4.56;39.89;99090.41;4447133;32;34183;-83
2024/01/16 11:30:42;;;;;;;;;;;;;;;4.47;39.50;99087.84;4459158;32;32969;-84
2024/01/16 11:33:31;;;;;;;;;;;;;;;4.49;39.98;99078.41;4449008;32;34535;-83
2024/01/16 11:36:00;;;;;;;;;;;;;;;4.76;39.26;99074.16;4450731;32;33752;-83
2024/01/16 11:38:39;;;;;;;;;;;;;;;4.65;39.15;99076.72;4446790;32;34344;-83
2024/01/16 11:41:08;;;;;;;;;;;;;;;4.55;39.21;99081.00;4447966;32;32823;-83
2024/01/16 11:43:39;;;;;;;;;;;;;;;4.77;38.85;99071.59;4459929;32;34600;-83
2024/01/16 11:46:11;;;;;;;;;;;;;;;4.75;38.99;99082.72;4461288;32;34488;-82
2024/01/16 11:48:40;;;;;;;;;;;;;;;4.70;38.92;99068.16;4461513;32;34677;-82
2024/01/16 11:51:23;;;;;;;;;;;;;;;4.67;38.65;99075.88;4448293;32;33584;-83
2024/01/16 11:53:57;;;;;;;;;;;;;;;4.79;38.87;99084.47;4445634;32;33532;-83
2024/01/16 11:56:36;;;;;;;;;;;;;;;5.01;38.46;99082.75;4447173;32;34662;-82
2024/01/16 11:59:28;;;;;;;;;;;;;;;4.59;38.61;99080.16;4448312;32;33957;-82
2024/01/16 12:02:04;;;;;;;;;;;;;;;4.57;38.63;99076.72;4451452;32;33702;-82
2024/01/16 12:04:42;;;;;;;;;;;;;;;4.72;38.60;99069.91;4453162;32;33291;-82
2024/01/16 12:07:13;;;;;;;;;;;;;;;4.89;38.25;99075.88;4447887;32;34774;-82
2024/01/16 12:09:47;;;;;;;;;;;;;;;4.66;38.82;99083.56;4450017;32;34862;-82
2024/01/16 12:12:16;;;;;;;;;;;;;;;4.72;38.56;99095.59;4448939;32;33088;-82
2024/01/16 12:14:51;;;;;;;;;;;;;;;4.72;38.43;99075.88;4468629;32;34116;-82
2024/01/16 12:17:21;;;;;;;;;;;;;;;4.84;38.14;99075.03;4456214;32;34182;-82
2024/01/16 12:19:50;;;;;;;;;;;;;;;4.57;38.96;99074.16;4450321;32;33264;-82
2024/01/16 12:22:21;;;;;;;;;;;;;;;4.79;38.70;99075.03;4447830;32;32879;-82
2024/01/16 12:24:51;;;;;;;;;;;;;;;4.96;38.60;99090.44;4448437;32;34794;-82
2024/01/16 12:27:20;;;;;;;;;;;;;;;4.80;38.47;99071.59;4452595;32;35041;-82
2024/01/16 12:29:51;;;;;;;;;;;;;;;5.02;38.29;99075.00;4450773;32;34516;-82
2024/01/16 12:32:22;;;;;;;;;;;;;;;5.25;37.75;99069.00;4454258;32;33391;-82
2024/01/16 12:34:55;;;;;;;;;;;;;;;5.65;37.40;99079.19;4450552;32;34984;-82
2024/01/16 12:37:23;;;;;;;;;;;;;;;5.49;36.82;99079.22;4449509;32;35122;-82
2024/01/16 12:39:57;;;;;;;;;;;;;;;5.46;36.34;99079.25;4460329;32;34793;-82
2024/01/16 12:42:26;;;;;;;;;;;;;;;5.59;36.41;99064.63;4457558;32;33731;-82
2024/01/16 12:44:55;;;;;;;;;;;;;;;5.53;37.07;99077.50;4462919;32;33615;-82
2024/01/16 12:47:24;;;;;;;;;;;;;;;5.64;36.49;99062.03;4455521;32;34723;-81
2024/01/16 12:49:54;;;;;;;;;;;;;;;5.80;36.37;99074.00;4468652;32;34074;-81
2024/01/16 12:52:27;;;;;;;;;;;;;;;5.88;35.83;99072.22;4460581;32;33329;-81
2024/01/16 12:55:01;;;;;;;;;;;;;;;6.01;35.34;99069.63;4448121;32;34535;-82
2024/01/16 12:57:30;;;;;;;;;;;;;;;5.96;34.69;99075.66;4448883;32;33560;-81
2024/01/16 13:00:01;;;;;;;;;;;;;;;5.80;34.95;99075.69;4451772;32;33908;-81
2024/01/16 13:02:30;;;;;;;;;;;;;;;5.71;34.56;99079.16;4452669;32;34098;-81
2024/01/16 13:05:02;;;;;;;;;;;;;;;5.78;34.32;99091.16;4447986;32;33948;-81
2024/01/16 13:07:32;;;;;;;;;;;;;;;5.33;35.21;99077.53;4447802;32;34432;-81
2024/01/16 13:10:24;;;;;;;;;;;;;;;5.47;34.81;99077.53;4451524;32;33790;-81
2024/01/16 13:12:53;;;;;;;;;;;;;;;5.63;34.36;99079.19;4449615;32;33147;-81
2024/01/16 13:15:23;;;;;;;;;;;;;;;5.58;34.59;99073.19;4452855;32;32594;-82
2024/01/16 13:17:55;;;;;;;;;;;;;;;5.65;35.12;99076.59;4451269;32;33372;-81
2024/01/16 13:20:26;;;;;;;;;;;;;;;5.92;34.58;99078.22;4447742;32;34664;-81